sensor_id;sensor_type;location;lat;lon;timestamp;P1;durP1;ratioP1;P2;durP2;ratioP2
4963;SDS011;2497;47.410;9.740;2023-04-03T00:02:00;1.80;;;1.10;;
4963;SDS011;2497;47.410;9.740;2023-04-03T00:04:28;3.13;;;1.13;;
4963;SDS011;2497;47.410;9.740;2023-04-03T00:06:56;1.20;;;1.00;;
4963;SDS011;2497;47.410;9.740;2023-04-03T00:09:23;1.53;;;1.40;;
4963;SDS011;2497;47.410;9.740;2023-04-03T00:11:51;1.30;;;1.00;;
4963;SDS011;2497;47.410;9.740;2023-04-03T00:14:18;2.00;;;1.30;;
4963;SDS011;2497;47.410;9.740;2023-04-03T00:16:45;1.67;;;0.97;;
4963;SDS011;2497;47.410;9.740;2023-04-03T00:19:13;1.37;;;1.20;;
4963;SDS011;2497;47.410;9.740;2023-04-03T00:21:40;1.40;;;1.10;;
4963;SDS011;2497;47.410;9.740;2023-04-03T00:24:08;1.70;;;1.27;;
4963;SDS011;2497;47.410;9.740;2023-04-03T00:26:36;1.30;;;1.10;;
4963;SDS011;2497;47.410;9.740;2023-04-03T00:29:03;1.67;;;1.00;;
4963;SDS011;2497;47.410;9.740;2023-04-03T00:31:30;1.40;;;1.10;;
4963;SDS011;2497;47.410;9.740;2023-04-03T00:33:58;1.47;;;1.10;;
4963;SDS011;2497;47.410;9.740;2023-04-03T00:36:25;1.20;;;1.10;;
4963;SDS011;2497;47.410;9.740;2023-04-03T00:38:52;1.40;;;1.10;;
4963;SDS011;2497;47.410;9.740;2023-04-03T00:41:21;1.70;;;1.40;;
4963;SDS011;2497;47.410;9.740;2023-04-03T00:43:48;1.83;;;1.33;;
4963;SDS011;2497;47.410;9.740;2023-04-03T00:46:15;1.83;;;1.23;;
4963;SDS011;2497;47.410;9.740;2023-04-03T00:48:42;1.67;;;1.47;;
4963;SDS011;2497;47.410;9.740;2023-04-03T00:51:12;1.97;;;1.57;;
4963;SDS011;2497;47.410;9.740;2023-04-03T00:53:43;2.43;;;1.93;;
4963;SDS011;2497;47.410;9.740;2023-04-03T00:56:15;2.03;;;1.57;;
4963;SDS011;2497;47.410;9.740;2023-04-03T00:58:46;1.63;;;1.43;;
4963;SDS011;2497;47.410;9.740;2023-04-03T01:01:19;4.93;;;1.47;;
4963;SDS011;2497;47.410;9.740;2023-04-03T01:03:49;2.00;;;1.40;;
4963;SDS011;2497;47.410;9.740;2023-04-03T01:06:16;2.70;;;1.80;;
4963;SDS011;2497;47.410;9.740;2023-04-03T01:08:47;3.37;;;1.93;;
4963;SDS011;2497;47.410;9.740;2023-04-03T01:11:16;4.70;;;1.93;;
4963;SDS011;2497;47.410;9.740;2023-04-03T01:13:43;4.60;;;2.60;;
4963;SDS011;2497;47.410;9.740;2023-04-03T01:16:12;3.23;;;2.03;;
4963;SDS011;2497;47.410;9.740;2023-04-03T01:18:39;3.53;;;2.37;;
4963;SDS011;2497;47.410;9.740;2023-04-03T01:24:07;4.10;;;2.77;;
4963;SDS011;2497;47.410;9.740;2023-04-03T01:26:44;5.43;;;2.80;;
4963;SDS011;2497;47.410;9.740;2023-04-03T01:29:12;2.90;;;2.30;;
4963;SDS011;2497;47.410;9.740;2023-04-03T01:31:44;4.03;;;2.30;;
4963;SDS011;2497;47.410;9.740;2023-04-03T01:34:14;4.00;;;3.00;;
4963;SDS011;2497;47.410;9.740;2023-04-03T01:36:41;3.33;;;2.60;;
4963;SDS011;2497;47.410;9.740;2023-04-03T01:39:08;7.13;;;3.37;;
4963;SDS011;2497;47.410;9.740;2023-04-03T01:41:35;4.27;;;3.10;;
4963;SDS011;2497;47.410;9.740;2023-04-03T01:44:02;5.33;;;3.20;;
4963;SDS011;2497;47.410;9.740;2023-04-03T01:46:30;7.50;;;4.47;;
4963;SDS011;2497;47.410;9.740;2023-04-03T01:48:59;6.00;;;3.90;;
4963;SDS011;2497;47.410;9.740;2023-04-03T01:51:27;8.30;;;3.90;;
4963;SDS011;2497;47.410;9.740;2023-04-03T01:53:54;6.10;;;3.37;;
4963;SDS011;2497;47.410;9.740;2023-04-03T01:56:21;7.13;;;4.50;;
4963;SDS011;2497;47.410;9.740;2023-04-03T01:58:48;9.77;;;4.47;;
4963;SDS011;2497;47.410;9.740;2023-04-03T02:01:16;7.60;;;4.10;;
4963;SDS011;2497;47.410;9.740;2023-04-03T02:03:43;8.70;;;4.83;;
4963;SDS011;2497;47.410;9.740;2023-04-03T02:06:12;10.10;;;4.70;;
4963;SDS011;2497;47.410;9.740;2023-04-03T02:08:39;10.90;;;4.20;;
4963;SDS011;2497;47.410;9.740;2023-04-03T02:11:06;7.27;;;4.10;;
4963;SDS011;2497;47.410;9.740;2023-04-03T02:13:34;6.40;;;4.37;;
4963;SDS011;2497;47.410;9.740;2023-04-03T02:16:05;6.17;;;4.57;;
4963;SDS011;2497;47.410;9.740;2023-04-03T02:18:33;9.00;;;4.73;;
4963;SDS011;2497;47.410;9.740;2023-04-03T02:21:00;5.57;;;3.80;;
4963;SDS011;2497;47.410;9.740;2023-04-03T02:23:29;11.03;;;4.17;;
4963;SDS011;2497;47.410;9.740;2023-04-03T02:26:02;9.33;;;4.67;;
4963;SDS011;2497;47.410;9.740;2023-04-03T02:28:31;6.80;;;3.83;;
4963;SDS011;2497;47.410;9.740;2023-04-03T02:30:58;6.60;;;4.60;;
4963;SDS011;2497;47.410;9.740;2023-04-03T02:33:25;9.30;;;4.60;;
4963;SDS011;2497;47.410;9.740;2023-04-03T02:35:53;8.90;;;4.90;;
4963;SDS011;2497;47.410;9.740;2023-04-03T02:38:21;8.47;;;5.20;;
4963;SDS011;2497;47.410;9.740;2023-04-03T02:40:50;8.97;;;4.80;;
4963;SDS011;2497;47.410;9.740;2023-04-03T02:43:17;8.07;;;4.50;;
4963;SDS011;2497;47.410;9.740;2023-04-03T02:45:44;7.90;;;5.17;;
4963;SDS011;2497;47.410;9.740;2023-04-03T02:48:12;7.90;;;5.07;;
4963;SDS011;2497;47.410;9.740;2023-04-03T02:50:39;8.00;;;4.00;;
4963;SDS011;2497;47.410;9.740;2023-04-03T02:53:07;8.90;;;4.93;;
4963;SDS011;2497;47.410;9.740;2023-04-03T02:55:35;10.90;;;5.23;;
4963;SDS011;2497;47.410;9.740;2023-04-03T02:58:03;8.47;;;4.57;;
4963;SDS011;2497;47.410;9.740;2023-04-03T03:00:30;8.10;;;4.97;;
4963;SDS011;2497;47.410;9.740;2023-04-03T03:02:58;8.57;;;4.93;;
4963;SDS011;2497;47.410;9.740;2023-04-03T03:05:25;9.40;;;5.83;;
4963;SDS011;2497;47.410;9.740;2023-04-03T03:07:53;7.83;;;4.40;;
4963;SDS011;2497;47.410;9.740;2023-04-03T03:10:21;6.80;;;4.90;;
4963;SDS011;2497;47.410;9.740;2023-04-03T03:12:48;8.97;;;5.17;;
4963;SDS011;2497;47.410;9.740;2023-04-03T03:15:17;10.90;;;5.80;;
4963;SDS011;2497;47.410;9.740;2023-04-03T03:17:45;8.97;;;5.03;;
4963;SDS011;2497;47.410;9.740;2023-04-03T03:20:12;9.00;;;5.50;;
4963;SDS011;2497;47.410;9.740;2023-04-03T03:22:40;8.53;;;5.20;;
4963;SDS011;2497;47.410;9.740;2023-04-03T03:25:08;7.90;;;5.03;;
4963;SDS011;2497;47.410;9.740;2023-04-03T03:27:35;8.23;;;4.90;;
4963;SDS011;2497;47.410;9.740;2023-04-03T03:30:19;8.97;;;5.90;;
4963;SDS011;2497;47.410;9.740;2023-04-03T03:32:46;7.60;;;4.97;;
4963;SDS011;2497;47.410;9.740;2023-04-03T03:35:13;10.43;;;5.43;;
4963;SDS011;2497;47.410;9.740;2023-04-03T03:37:40;5.80;;;4.60;;
4963;SDS011;2497;47.410;9.740;2023-04-03T03:40:08;9.20;;;5.50;;
4963;SDS011;2497;47.410;9.740;2023-04-03T03:42:38;10.40;;;5.80;;
4963;SDS011;2497;47.410;9.740;2023-04-03T03:45:08;13.83;;;6.37;;
4963;SDS011;2497;47.410;9.740;2023-04-03T03:47:38;14.83;;;6.13;;
4963;SDS011;2497;47.410;9.740;2023-04-03T03:50:05;15.07;;;6.50;;
4963;SDS011;2497;47.410;9.740;2023-04-03T03:52:33;11.00;;;6.23;;
4963;SDS011;2497;47.410;9.740;2023-04-03T03:55:00;15.23;;;7.30;;
4963;SDS011;2497;47.410;9.740;2023-04-03T03:57:27;13.50;;;6.47;;
4963;SDS011;2497;47.410;9.740;2023-04-03T03:59:55;12.60;;;6.90;;
4963;SDS011;2497;47.410;9.740;2023-04-03T04:02:22;17.13;;;6.87;;
4963;SDS011;2497;47.410;9.740;2023-04-03T04:04:51;18.63;;;7.10;;
4963;SDS011;2497;47.410;9.740;2023-04-03T04:07:18;12.30;;;6.70;;
4963;SDS011;2497;47.410;9.740;2023-04-03T04:09:45;8.53;;;5.87;;
4963;SDS011;2497;47.410;9.740;2023-04-03T04:12:12;12.13;;;6.87;;
4963;SDS011;2497;47.410;9.740;2023-04-03T04:14:41;12.40;;;6.47;;
4963;SDS011;2497;47.410;9.740;2023-04-03T04:17:08;12.53;;;6.90;;
4963;SDS011;2497;47.410;9.740;2023-04-03T04:19:35;14.03;;;6.90;;
4963;SDS011;2497;47.410;9.740;2023-04-03T04:22:04;12.77;;;6.40;;
4963;SDS011;2497;47.410;9.740;2023-04-03T04:24:31;15.37;;;7.40;;
4963;SDS011;2497;47.410;9.740;2023-04-03T04:26:59;10.30;;;6.77;;
4963;SDS011;2497;47.410;9.740;2023-04-03T04:29:26;16.33;;;7.97;;
4963;SDS011;2497;47.410;9.740;2023-04-03T04:31:53;12.47;;;7.10;;
4963;SDS011;2497;47.410;9.740;2023-04-03T04:34:20;17.73;;;8.73;;
4963;SDS011;2497;47.410;9.740;2023-04-03T04:36:47;10.73;;;7.60;;
4963;SDS011;2497;47.410;9.740;2023-04-03T04:39:16;18.13;;;7.83;;
4963;SDS011;2497;47.410;9.740;2023-04-03T04:41:43;16.67;;;7.37;;
4963;SDS011;2497;47.410;9.740;2023-04-03T04:44:10;15.80;;;8.00;;
4963;SDS011;2497;47.410;9.740;2023-04-03T04:46:37;14.70;;;8.57;;
4963;SDS011;2497;47.410;9.740;2023-04-03T04:49:04;15.40;;;8.60;;
4963;SDS011;2497;47.410;9.740;2023-04-03T04:51:32;12.90;;;7.00;;
4963;SDS011;2497;47.410;9.740;2023-04-03T04:53:59;13.57;;;7.33;;
4963;SDS011;2497;47.410;9.740;2023-04-03T04:56:27;12.17;;;7.80;;
4963;SDS011;2497;47.410;9.740;2023-04-03T04:58:54;20.80;;;8.10;;
4963;SDS011;2497;47.410;9.740;2023-04-03T05:01:21;17.10;;;7.83;;
4963;SDS011;2497;47.410;9.740;2023-04-03T05:03:49;12.43;;;6.90;;
4963;SDS011;2497;47.410;9.740;2023-04-03T05:06:19;13.13;;;8.10;;
4963;SDS011;2497;47.410;9.740;2023-04-03T05:08:47;16.10;;;8.33;;
4963;SDS011;2497;47.410;9.740;2023-04-03T05:11:14;15.83;;;7.93;;
4963;SDS011;2497;47.410;9.740;2023-04-03T05:13:43;14.03;;;8.17;;
4963;SDS011;2497;47.410;9.740;2023-04-03T05:16:10;15.37;;;7.33;;
4963;SDS011;2497;47.410;9.740;2023-04-03T05:18:37;15.10;;;8.37;;
4963;SDS011;2497;47.410;9.740;2023-04-03T05:21:04;15.57;;;7.70;;
4963;SDS011;2497;47.410;9.740;2023-04-03T05:23:31;15.33;;;8.40;;
4963;SDS011;2497;47.410;9.740;2023-04-03T05:25:59;15.13;;;7.83;;
4963;SDS011;2497;47.410;9.740;2023-04-03T05:28:26;14.00;;;6.60;;
4963;SDS011;2497;47.410;9.740;2023-04-03T05:30:59;14.43;;;7.70;;
4963;SDS011;2497;47.410;9.740;2023-04-03T05:33:26;18.20;;;7.83;;
4963;SDS011;2497;47.410;9.740;2023-04-03T05:35:54;13.50;;;8.03;;
4963;SDS011;2497;47.410;9.740;2023-04-03T05:38:21;18.47;;;7.30;;
4963;SDS011;2497;47.410;9.740;2023-04-03T05:40:50;14.77;;;7.13;;
4963;SDS011;2497;47.410;9.740;2023-04-03T05:43:17;14.63;;;7.50;;
4963;SDS011;2497;47.410;9.740;2023-04-03T05:45:44;19.10;;;8.47;;
4963;SDS011;2497;47.410;9.740;2023-04-03T05:48:14;15.80;;;8.20;;
4963;SDS011;2497;47.410;9.740;2023-04-03T05:50:41;24.30;;;8.30;;
4963;SDS011;2497;47.410;9.740;2023-04-03T05:53:09;21.53;;;9.47;;
4963;SDS011;2497;47.410;9.740;2023-04-03T06:06:18;15.20;;;7.30;;
4963;SDS011;2497;47.410;9.740;2023-04-03T06:08:48;21.33;;;7.70;;
4963;SDS011;2497;47.410;9.740;2023-04-03T06:11:16;15.37;;;7.57;;
4963;SDS011;2497;47.410;9.740;2023-04-03T06:13:43;16.97;;;8.37;;
4963;SDS011;2497;47.410;9.740;2023-04-03T06:16:11;15.20;;;6.50;;
4963;SDS011;2497;47.410;9.740;2023-04-03T06:18:40;13.77;;;7.13;;
4963;SDS011;2497;47.410;9.740;2023-04-03T06:21:08;16.10;;;8.10;;
4963;SDS011;2497;47.410;9.740;2023-04-03T06:23:38;15.10;;;7.30;;
4963;SDS011;2497;47.410;9.740;2023-04-03T06:26:05;15.70;;;7.40;;
4963;SDS011;2497;47.410;9.740;2023-04-03T06:28:33;15.67;;;7.30;;
4963;SDS011;2497;47.410;9.740;2023-04-03T06:31:00;13.80;;;7.43;;
4963;SDS011;2497;47.410;9.740;2023-04-03T06:33:27;15.30;;;7.90;;
4963;SDS011;2497;47.410;9.740;2023-04-03T06:35:56;15.30;;;7.37;;
4963;SDS011;2497;47.410;9.740;2023-04-03T06:38:26;17.20;;;7.40;;
4963;SDS011;2497;47.410;9.740;2023-04-03T06:40:55;15.70;;;7.57;;
4963;SDS011;2497;47.410;9.740;2023-04-03T06:43:22;14.03;;;7.23;;
4963;SDS011;2497;47.410;9.740;2023-04-03T06:45:49;13.90;;;8.57;;
4963;SDS011;2497;47.410;9.740;2023-04-03T06:48:17;17.97;;;9.13;;
4963;SDS011;2497;47.410;9.740;2023-04-03T06:50:44;16.30;;;7.40;;
4963;SDS011;2497;47.410;9.740;2023-04-03T06:53:13;14.57;;;8.17;;
4963;SDS011;2497;47.410;9.740;2023-04-03T06:55:40;17.63;;;8.57;;
4963;SDS011;2497;47.410;9.740;2023-04-03T06:58:09;17.97;;;7.87;;
4963;SDS011;2497;47.410;9.740;2023-04-03T07:00:36;18.70;;;7.80;;
4963;SDS011;2497;47.410;9.740;2023-04-03T07:03:08;14.77;;;8.27;;
4963;SDS011;2497;47.410;9.740;2023-04-03T07:05:35;13.43;;;7.13;;
4963;SDS011;2497;47.410;9.740;2023-04-03T07:08:02;17.40;;;8.17;;
4963;SDS011;2497;47.410;9.740;2023-04-03T07:10:29;21.00;;;10.53;;
4963;SDS011;2497;47.410;9.740;2023-04-03T07:12:56;14.13;;;9.60;;
4963;SDS011;2497;47.410;9.740;2023-04-03T07:15:28;19.17;;;9.47;;
4963;SDS011;2497;47.410;9.740;2023-04-03T07:17:55;16.43;;;9.07;;
4963;SDS011;2497;47.410;9.740;2023-04-03T07:20:22;19.00;;;10.00;;
4963;SDS011;2497;47.410;9.740;2023-04-03T07:22:49;20.67;;;9.70;;
4963;SDS011;2497;47.410;9.740;2023-04-03T07:25:16;20.07;;;9.50;;
4963;SDS011;2497;47.410;9.740;2023-04-03T07:27:45;17.00;;;9.20;;
4963;SDS011;2497;47.410;9.740;2023-04-03T07:30:14;24.73;;;10.00;;
4963;SDS011;2497;47.410;9.740;2023-04-03T07:32:44;20.40;;;9.67;;
4963;SDS011;2497;47.410;9.740;2023-04-03T07:35:11;17.40;;;9.50;;
4963;SDS011;2497;47.410;9.740;2023-04-03T07:37:56;15.77;;;7.57;;
4963;SDS011;2497;47.410;9.740;2023-04-03T07:40:23;16.30;;;8.33;;
4963;SDS011;2497;47.410;9.740;2023-04-03T07:42:50;17.03;;;9.20;;
4963;SDS011;2497;47.410;9.740;2023-04-03T07:45:17;19.17;;;10.53;;
4963;SDS011;2497;47.410;9.740;2023-04-03T07:47:46;18.60;;;8.70;;
4963;SDS011;2497;47.410;9.740;2023-04-03T07:50:14;20.07;;;8.70;;
4963;SDS011;2497;47.410;9.740;2023-04-03T07:52:41;17.47;;;8.97;;
4963;SDS011;2497;47.410;9.740;2023-04-03T07:55:08;20.73;;;9.17;;
4963;SDS011;2497;47.410;9.740;2023-04-03T07:57:35;16.97;;;9.17;;
4963;SDS011;2497;47.410;9.740;2023-04-03T08:00:03;12.13;;;8.10;;
4963;SDS011;2497;47.410;9.740;2023-04-03T08:02:31;18.27;;;9.50;;
4963;SDS011;2497;47.410;9.740;2023-04-03T08:05:00;16.60;;;7.80;;
4963;SDS011;2497;47.410;9.740;2023-04-03T08:07:27;17.67;;;9.10;;
4963;SDS011;2497;47.410;9.740;2023-04-03T08:10:00;15.40;;;8.63;;
4963;SDS011;2497;47.410;9.740;2023-04-03T08:12:27;17.37;;;8.73;;
4963;SDS011;2497;47.410;9.740;2023-04-03T08:14:55;18.30;;;8.73;;
4963;SDS011;2497;47.410;9.740;2023-04-03T08:17:22;22.13;;;8.00;;
4963;SDS011;2497;47.410;9.740;2023-04-03T08:19:49;17.53;;;8.77;;
4963;SDS011;2497;47.410;9.740;2023-04-03T08:22:20;17.30;;;8.50;;
4963;SDS011;2497;47.410;9.740;2023-04-03T08:24:47;17.73;;;8.80;;
4963;SDS011;2497;47.410;9.740;2023-04-03T08:27:16;15.70;;;8.47;;
4963;SDS011;2497;47.410;9.740;2023-04-03T08:29:45;14.63;;;7.57;;
4963;SDS011;2497;47.410;9.740;2023-04-03T08:32:14;17.60;;;9.00;;
4963;SDS011;2497;47.410;9.740;2023-04-03T08:34:41;22.30;;;9.10;;
4963;SDS011;2497;47.410;9.740;2023-04-03T08:37:08;18.90;;;8.70;;
4963;SDS011;2497;47.410;9.740;2023-04-03T08:39:38;13.10;;;7.93;;
4963;SDS011;2497;47.410;9.740;2023-04-03T08:42:07;16.30;;;8.80;;
4963;SDS011;2497;47.410;9.740;2023-04-03T08:44:47;18.10;;;8.40;;
4963;SDS011;2497;47.410;9.740;2023-04-03T08:47:21;15.50;;;8.60;;
4963;SDS011;2497;47.410;9.740;2023-04-03T08:49:52;17.10;;;8.23;;
4963;SDS011;2497;47.410;9.740;2023-04-03T08:52:23;15.33;;;7.37;;
4963;SDS011;2497;47.410;9.740;2023-04-03T08:55:01;14.73;;;7.60;;
4963;SDS011;2497;47.410;9.740;2023-04-03T08:57:33;12.60;;;7.40;;
4963;SDS011;2497;47.410;9.740;2023-04-03T09:00:04;17.70;;;8.57;;
4963;SDS011;2497;47.410;9.740;2023-04-03T09:02:39;17.00;;;7.97;;
4963;SDS011;2497;47.410;9.740;2023-04-03T09:05:11;13.20;;;7.50;;
4963;SDS011;2497;47.410;9.740;2023-04-03T09:07:42;18.17;;;8.43;;
4963;SDS011;2497;47.410;9.740;2023-04-03T09:10:14;15.10;;;8.03;;
4963;SDS011;2497;47.410;9.740;2023-04-03T09:12:49;14.67;;;8.27;;
4963;SDS011;2497;47.410;9.740;2023-04-03T09:15:26;17.47;;;8.80;;
4963;SDS011;2497;47.410;9.740;2023-04-03T09:17:58;13.60;;;7.60;;
4963;SDS011;2497;47.410;9.740;2023-04-03T09:20:31;20.87;;;8.03;;
4963;SDS011;2497;47.410;9.740;2023-04-03T09:23:13;16.67;;;8.17;;
4963;SDS011;2497;47.410;9.740;2023-04-03T09:25:56;14.00;;;7.47;;
4963;SDS011;2497;47.410;9.740;2023-04-03T09:28:31;11.80;;;7.60;;
4963;SDS011;2497;47.410;9.740;2023-04-03T09:31:05;14.30;;;7.93;;
4963;SDS011;2497;47.410;9.740;2023-04-03T09:33:42;19.03;;;8.53;;
4963;SDS011;2497;47.410;9.740;2023-04-03T09:36:10;14.27;;;7.30;;
4963;SDS011;2497;47.410;9.740;2023-04-03T09:38:37;15.43;;;7.97;;
4963;SDS011;2497;47.410;9.740;2023-04-03T09:41:07;17.00;;;9.03;;
4963;SDS011;2497;47.410;9.740;2023-04-03T09:43:41;14.40;;;7.90;;
4963;SDS011;2497;47.410;9.740;2023-04-03T09:46:25;16.20;;;7.77;;
4963;SDS011;2497;47.410;9.740;2023-04-03T09:48:58;15.23;;;7.50;;
4963;SDS011;2497;47.410;9.740;2023-04-03T09:51:27;12.77;;;7.43;;
4963;SDS011;2497;47.410;9.740;2023-04-03T09:53:56;14.93;;;7.40;;
4963;SDS011;2497;47.410;9.740;2023-04-03T09:56:30;18.73;;;6.90;;
4963;SDS011;2497;47.410;9.740;2023-04-03T10:01:42;12.07;;;6.47;;
4963;SDS011;2497;47.410;9.740;2023-04-03T10:04:22;18.30;;;7.70;;
4963;SDS011;2497;47.410;9.740;2023-04-03T10:06:51;19.97;;;8.40;;
4963;SDS011;2497;47.410;9.740;2023-04-03T10:09:20;16.37;;;7.53;;
4963;SDS011;2497;47.410;9.740;2023-04-03T10:14:37;13.80;;;7.30;;
4963;SDS011;2497;47.410;9.740;2023-04-03T10:17:11;15.00;;;6.70;;
4963;SDS011;2497;47.410;9.740;2023-04-03T10:19:49;13.17;;;7.13;;
4963;SDS011;2497;47.410;9.740;2023-04-03T10:22:24;17.03;;;6.93;;
4963;SDS011;2497;47.410;9.740;2023-04-03T10:25:03;11.00;;;5.57;;
4963;SDS011;2497;47.410;9.740;2023-04-03T10:27:44;9.53;;;5.53;;
4963;SDS011;2497;47.410;9.740;2023-04-03T10:30:22;11.80;;;5.60;;
4963;SDS011;2497;47.410;9.740;2023-04-03T10:32:58;12.00;;;6.00;;
4963;SDS011;2497;47.410;9.740;2023-04-03T10:35:41;11.47;;;5.97;;
4963;SDS011;2497;47.410;9.740;2023-04-03T10:38:15;10.90;;;5.93;;
4963;SDS011;2497;47.410;9.740;2023-04-03T10:40:48;12.00;;;6.07;;
4963;SDS011;2497;47.410;9.740;2023-04-03T10:43:27;10.13;;;5.73;;
4963;SDS011;2497;47.410;9.740;2023-04-03T10:46:01;12.83;;;5.37;;
4963;SDS011;2497;47.410;9.740;2023-04-03T10:48:35;9.10;;;5.40;;
4963;SDS011;2497;47.410;9.740;2023-04-03T10:51:12;9.80;;;5.20;;
4963;SDS011;2497;47.410;9.740;2023-04-03T10:53:50;12.23;;;5.23;;
4963;SDS011;2497;47.410;9.740;2023-04-03T10:56:24;12.10;;;5.97;;
4963;SDS011;2497;47.410;9.740;2023-04-03T10:59:01;8.13;;;4.80;;
4963;SDS011;2497;47.410;9.740;2023-04-03T11:01:43;10.27;;;5.87;;
4963;SDS011;2497;47.410;9.740;2023-04-03T11:04:13;10.37;;;5.70;;
4963;SDS011;2497;47.410;9.740;2023-04-03T11:06:45;8.67;;;5.07;;
4963;SDS011;2497;47.410;9.740;2023-04-03T11:09:18;8.93;;;5.17;;
4963;SDS011;2497;47.410;9.740;2023-04-03T11:11:49;9.83;;;5.30;;
4963;SDS011;2497;47.410;9.740;2023-04-03T11:14:25;7.80;;;5.40;;
4963;SDS011;2497;47.410;9.740;2023-04-03T11:16:59;9.60;;;6.20;;
4963;SDS011;2497;47.410;9.740;2023-04-03T11:19:34;9.50;;;5.30;;
4963;SDS011;2497;47.410;9.740;2023-04-03T11:22:08;8.10;;;5.23;;
4963;SDS011;2497;47.410;9.740;2023-04-03T11:24:43;13.37;;;5.60;;
4963;SDS011;2497;47.410;9.740;2023-04-03T11:27:19;13.90;;;4.70;;
4963;SDS011;2497;47.410;9.740;2023-04-03T11:29:51;8.93;;;4.90;;
4963;SDS011;2497;47.410;9.740;2023-04-03T11:32:26;9.47;;;4.57;;
4963;SDS011;2497;47.410;9.740;2023-04-03T11:35:05;10.43;;;4.07;;
4963;SDS011;2497;47.410;9.740;2023-04-03T11:37:39;6.20;;;3.63;;
4963;SDS011;2497;47.410;9.740;2023-04-03T11:40:17;6.83;;;3.87;;
4963;SDS011;2497;47.410;9.740;2023-04-03T11:42:49;8.00;;;4.10;;
4963;SDS011;2497;47.410;9.740;2023-04-03T11:45:31;6.83;;;3.93;;
4963;SDS011;2497;47.410;9.740;2023-04-03T11:48:02;4.97;;;3.43;;
4963;SDS011;2497;47.410;9.740;2023-04-03T11:50:39;6.07;;;4.00;;
4963;SDS011;2497;47.410;9.740;2023-04-03T11:56:00;5.30;;;3.67;;
4963;SDS011;2497;47.410;9.740;2023-04-03T11:58:32;4.63;;;3.40;;
4963;SDS011;2497;47.410;9.740;2023-04-03T12:01:03;6.67;;;4.03;;
4963;SDS011;2497;47.410;9.740;2023-04-03T12:03:55;10.63;;;3.40;;
4963;SDS011;2497;47.410;9.740;2023-04-03T12:09:23;5.77;;;3.30;;
4963;SDS011;2497;47.410;9.740;2023-04-03T12:11:54;7.43;;;3.23;;
4963;SDS011;2497;47.410;9.740;2023-04-03T12:14:23;7.33;;;3.43;;
4963;SDS011;2497;47.410;9.740;2023-04-03T12:16:53;4.40;;;2.90;;
4963;SDS011;2497;47.410;9.740;2023-04-03T12:19:31;6.97;;;2.77;;
4963;SDS011;2497;47.410;9.740;2023-04-03T12:22:05;5.33;;;3.50;;
4963;SDS011;2497;47.410;9.740;2023-04-03T12:24:37;5.67;;;3.20;;
4963;SDS011;2497;47.410;9.740;2023-04-03T12:27:14;4.20;;;2.97;;
4963;SDS011;2497;47.410;9.740;2023-04-03T12:30:00;3.80;;;2.70;;
4963;SDS011;2497;47.410;9.740;2023-04-03T12:35:31;3.90;;;2.40;;
4963;SDS011;2497;47.410;9.740;2023-04-03T12:38:14;5.80;;;3.80;;
4963;SDS011;2497;47.410;9.740;2023-04-03T12:41:03;4.87;;;2.87;;
4963;SDS011;2497;47.410;9.740;2023-04-03T12:43:46;2.97;;;2.40;;
4963;SDS011;2497;47.410;9.740;2023-04-03T12:46:22;4.27;;;2.87;;
4963;SDS011;2497;47.410;9.740;2023-04-03T12:48:52;5.03;;;3.30;;
4963;SDS011;2497;47.410;9.740;2023-04-03T12:51:21;6.00;;;3.00;;
4963;SDS011;2497;47.410;9.740;2023-04-03T12:53:56;4.20;;;2.60;;
4963;SDS011;2497;47.410;9.740;2023-04-03T12:56:28;4.03;;;2.40;;
4963;SDS011;2497;47.410;9.740;2023-04-03T12:59:12;4.27;;;2.27;;
4963;SDS011;2497;47.410;9.740;2023-04-03T13:01:41;6.80;;;3.07;;
4963;SDS011;2497;47.410;9.740;2023-04-03T13:04:10;2.87;;;2.43;;
4963;SDS011;2497;47.410;9.740;2023-04-03T13:06:39;3.37;;;2.40;;
4963;SDS011;2497;47.410;9.740;2023-04-03T13:09:18;5.70;;;2.30;;
4963;SDS011;2497;47.410;9.740;2023-04-03T13:11:50;3.90;;;2.60;;
4963;SDS011;2497;47.410;9.740;2023-04-03T13:14:33;3.40;;;2.70;;
4963;SDS011;2497;47.410;9.740;2023-04-03T13:17:04;4.80;;;2.40;;
4963;SDS011;2497;47.410;9.740;2023-04-03T13:19:38;2.90;;;2.23;;
4963;SDS011;2497;47.410;9.740;2023-04-03T13:22:10;6.77;;;3.20;;
4963;SDS011;2497;47.410;9.740;2023-04-03T13:24:50;3.87;;;2.80;;
4963;SDS011;2497;47.410;9.740;2023-04-03T13:27:20;4.97;;;2.20;;
4963;SDS011;2497;47.410;9.740;2023-04-03T13:29:49;3.40;;;2.47;;
4963;SDS011;2497;47.410;9.740;2023-04-03T13:32:19;3.50;;;2.27;;
4963;SDS011;2497;47.410;9.740;2023-04-03T13:34:49;5.00;;;3.17;;
4963;SDS011;2497;47.410;9.740;2023-04-03T13:37:19;6.03;;;2.80;;
4963;SDS011;2497;47.410;9.740;2023-04-03T13:39:56;3.90;;;2.70;;
4963;SDS011;2497;47.410;9.740;2023-04-03T13:42:33;4.67;;;2.80;;
4963;SDS011;2497;47.410;9.740;2023-04-03T13:47:47;4.03;;;2.60;;
4963;SDS011;2497;47.410;9.740;2023-04-03T13:53:42;3.17;;;2.60;;
4963;SDS011;2497;47.410;9.740;2023-04-03T13:56:27;5.00;;;2.97;;
4963;SDS011;2497;47.410;9.740;2023-04-03T13:59:00;4.37;;;2.60;;
4963;SDS011;2497;47.410;9.740;2023-04-03T14:01:38;4.73;;;3.20;;
4963;SDS011;2497;47.410;9.740;2023-04-03T14:04:11;4.47;;;2.93;;
4963;SDS011;2497;47.410;9.740;2023-04-03T14:06:45;5.60;;;3.70;;
4963;SDS011;2497;47.410;9.740;2023-04-03T14:09:14;5.07;;;2.93;;
4963;SDS011;2497;47.410;9.740;2023-04-03T14:11:42;5.03;;;2.73;;
4963;SDS011;2497;47.410;9.740;2023-04-03T14:14:13;6.03;;;3.63;;
4963;SDS011;2497;47.410;9.740;2023-04-03T14:16:59;5.60;;;2.80;;
4963;SDS011;2497;47.410;9.740;2023-04-03T14:19:48;3.87;;;2.50;;
4963;SDS011;2497;47.410;9.740;2023-04-03T14:22:22;4.87;;;3.50;;
4963;SDS011;2497;47.410;9.740;2023-04-03T14:24:51;6.03;;;3.67;;
4963;SDS011;2497;47.410;9.740;2023-04-03T14:27:20;3.60;;;2.70;;
4963;SDS011;2497;47.410;9.740;2023-04-03T14:29:49;5.40;;;2.90;;
4963;SDS011;2497;47.410;9.740;2023-04-03T14:32:20;6.57;;;3.60;;
4963;SDS011;2497;47.410;9.740;2023-04-03T14:34:49;7.30;;;3.67;;
4963;SDS011;2497;47.410;9.740;2023-04-03T14:37:21;7.10;;;2.90;;
4963;SDS011;2497;47.410;9.740;2023-04-03T14:39:50;3.50;;;2.90;;
4963;SDS011;2497;47.410;9.740;2023-04-03T14:42:20;6.10;;;3.40;;
4963;SDS011;2497;47.410;9.740;2023-04-03T14:44:51;7.23;;;3.20;;
4963;SDS011;2497;47.410;9.740;2023-04-03T14:47:19;3.13;;;2.73;;
4963;SDS011;2497;47.410;9.740;2023-04-03T14:49:49;6.20;;;3.40;;
4963;SDS011;2497;47.410;9.740;2023-04-03T14:52:20;4.83;;;3.50;;
4963;SDS011;2497;47.410;9.740;2023-04-03T14:54:49;4.97;;;2.83;;
4963;SDS011;2497;47.410;9.740;2023-04-03T14:57:31;5.90;;;3.47;;
4963;SDS011;2497;47.410;9.740;2023-04-03T14:59:59;10.03;;;3.27;;
4963;SDS011;2497;47.410;9.740;2023-04-03T15:02:29;5.60;;;3.37;;
4963;SDS011;2497;47.410;9.740;2023-04-03T15:04:59;4.07;;;3.17;;
4963;SDS011;2497;47.410;9.740;2023-04-03T15:07:30;4.97;;;3.13;;
4963;SDS011;2497;47.410;9.740;2023-04-03T15:09:59;5.47;;;3.60;;
4963;SDS011;2497;47.410;9.740;2023-04-03T15:12:29;7.70;;;3.40;;
4963;SDS011;2497;47.410;9.740;2023-04-03T15:14:57;6.17;;;3.60;;
4963;SDS011;2497;47.410;9.740;2023-04-03T15:17:24;5.17;;;3.40;;
4963;SDS011;2497;47.410;9.740;2023-04-03T15:19:52;4.20;;;2.87;;
4963;SDS011;2497;47.410;9.740;2023-04-03T15:22:19;5.63;;;4.10;;
4963;SDS011;2497;47.410;9.740;2023-04-03T15:24:48;43.23;;;15.00;;
4963;SDS011;2497;47.410;9.740;2023-04-03T15:27:15;6.37;;;3.20;;
4963;SDS011;2497;47.410;9.740;2023-04-03T15:29:43;6.97;;;3.70;;
4963;SDS011;2497;47.410;9.740;2023-04-03T15:32:11;5.40;;;4.30;;
4963;SDS011;2497;47.410;9.740;2023-04-03T15:34:39;7.73;;;3.50;;
4963;SDS011;2497;47.410;9.740;2023-04-03T15:37:06;4.40;;;3.13;;
4963;SDS011;2497;47.410;9.740;2023-04-03T15:39:33;5.17;;;3.80;;
4963;SDS011;2497;47.410;9.740;2023-04-03T15:42:02;12.40;;;5.50;;
4963;SDS011;2497;47.410;9.740;2023-04-03T15:44:31;4.30;;;3.50;;
4963;SDS011;2497;47.410;9.740;2023-04-03T15:46:59;4.73;;;3.37;;
4963;SDS011;2497;47.410;9.740;2023-04-03T15:49:29;5.87;;;3.70;;
4963;SDS011;2497;47.410;9.740;2023-04-03T15:51:57;5.07;;;2.70;;
4963;SDS011;2497;47.410;9.740;2023-04-03T15:54:24;6.50;;;3.50;;
4963;SDS011;2497;47.410;9.740;2023-04-03T15:56:52;5.73;;;3.17;;
4963;SDS011;2497;47.410;9.740;2023-04-03T15:59:21;14.60;;;4.23;;
4963;SDS011;2497;47.410;9.740;2023-04-03T16:01:48;7.30;;;3.90;;